Time;durP1;ratioP1;P1;durP2;ratioP2;P2;SDS_P1;SDS_P2;PMS_P1;PMS_P2;Temp;Humidity;BMP_temperature;BMP_pressure;BME280_temperature;BME280_humidity;BME280_pressure;Samples;Min_cycle;Max_cycle;Signal;HPM_P1;HPM_P2
2022/03/29 00:01:14;;;;;;;45.90;12.30;;;10.90;9.10;;;;;;4987214;28;20476;-69
2022/03/29 00:03:41;;;;;;;45.67;13.50;;;10.80;9.10;;;;;;4988484;28;20464;-69
2022/03/29 00:06:09;;;;;;;42.30;13.10;;;10.80;9.10;;;;;;4987910;28;20480;-69
2022/03/29 00:08:36;;;;;;;44.40;13.40;;;10.80;9.20;;;;;;4986198;28;20465;-68
2022/03/29 00:11:03;;;;;;;44.30;14.53;;;10.80;9.40;;;;;;4987600;28;20487;-69
2022/03/29 00:13:29;;;;;;;42.80;13.17;;;10.70;9.80;;;;;;4987218;28;20468;-68
2022/03/29 00:15:56;;;;;;;41.70;12.70;;;10.60;10.00;;;;;;4988047;28;20492;-69
2022/03/29 00:18:23;;;;;;;45.87;14.23;;;10.60;10.70;;;;;;4988597;28;20491;-68
2022/03/29 00:20:50;;;;;;;44.23;15.33;;;10.50;10.40;;;;;;4982557;28;20467;-69
2022/03/29 00:23:19;;;;;;;42.80;14.40;;;10.50;10.50;;;;;;4986859;28;20472;-69
2022/03/29 00:25:46;;;;;;;47.53;14.60;;;10.40;10.40;;;;;;4987149;28;20480;-69
2022/03/29 00:28:13;;;;;;;44.33;13.60;;;10.30;10.50;;;;;;4987904;28;21157;-69
2022/03/29 00:30:41;;;;;;;46.33;14.33;;;10.30;10.50;;;;;;4984569;28;20480;-69
2022/03/29 00:33:07;;;;;;;48.27;15.23;;;10.30;10.60;;;;;;4987613;28;20460;-68
2022/03/29 00:35:34;;;;;;;42.87;13.50;;;10.40;10.70;;;;;;4986804;28;20497;-69
2022/03/29 00:38:01;;;;;;;50.60;14.63;;;10.30;10.70;;;;;;4987501;28;20744;-69
2022/03/29 00:40:30;;;;;;;44.30;13.70;;;10.30;10.80;;;;;;4988010;28;20471;-68
2022/03/29 00:42:57;;;;;;;43.37;14.53;;;10.30;10.80;;;;;;4987173;28;20460;-69
2022/03/29 00:45:24;;;;;;;43.47;14.80;;;10.20;10.90;;;;;;4986253;28;20841;-69
2022/03/29 00:47:51;;;;;;;43.70;13.83;;;10.10;10.70;;;;;;4987428;28;20468;-69
2022/03/29 00:50:18;;;;;;;46.93;13.67;;;10.10;11.10;;;;;;4987290;28;20464;-69
2022/03/29 00:52:45;;;;;;;48.20;14.43;;;10.10;11.10;;;;;;4987268;28;20791;-68
2022/03/29 00:55:13;;;;;;;44.60;13.20;;;10.00;11.00;;;;;;4986810;28;20496;-69
2022/03/29 00:57:45;;;;;;;48.70;15.23;;;9.90;11.20;;;;;;4986680;28;20501;-69
2022/03/29 01:00:13;;;;;;;45.40;14.30;;;9.90;11.40;;;;;;4986268;28;20461;-69
2022/03/29 01:02:39;;;;;;;43.97;14.20;;;9.90;11.50;;;;;;4987036;28;20834;-69
2022/03/29 01:05:07;;;;;;;48.40;14.57;;;9.80;11.70;;;;;;4987059;28;20484;-69
2022/03/29 01:07:34;;;;;;;44.67;14.23;;;9.80;11.80;;;;;;4985333;28;20460;-68
2022/03/29 01:10:02;;;;;;;46.07;15.47;;;9.80;12.00;;;;;;4986424;28;20612;-69
2022/03/29 01:12:31;;;;;;;48.07;16.50;;;9.80;11.90;;;;;;4988287;28;20469;-69
2022/03/29 01:15:00;;;;;;;46.70;15.60;;;9.80;12.20;;;;;;4991808;28;20493;-68
2022/03/29 01:17:38;;;;;;;42.43;13.60;;;9.80;12.30;;;;;;4991950;28;20496;-69
2022/03/29 01:20:09;;;;;;;45.33;14.87;;;9.90;12.50;;;;;;4992485;28;20735;-69
2022/03/29 01:22:39;;;;;;;46.13;15.80;;;9.80;12.40;;;;;;4990873;28;20471;-70
2022/03/29 01:25:08;;;;;;;46.60;14.73;;;9.90;12.50;;;;;;4991233;28;20488;-68
2022/03/29 01:27:36;;;;;;;46.93;14.90;;;9.90;12.60;;;;;;4991462;28;20494;-69
2022/03/29 01:30:03;;;;;;;44.70;14.37;;;9.80;12.50;;;;;;4991946;28;20835;-69
2022/03/29 01:32:31;;;;;;;47.13;15.40;;;9.80;12.60;;;;;;4991312;28;20469;-68
2022/03/29 01:34:59;;;;;;;44.80;14.13;;;9.70;12.50;;;;;;4989895;28;20484;-69
2022/03/29 01:37:26;;;;;;;47.23;15.30;;;9.70;12.70;;;;;;4991927;28;20461;-69
2022/03/29 01:39:54;;;;;;;49.83;15.67;;;9.70;12.80;;;;;;4990776;28;20461;-69
2022/03/29 01:42:21;;;;;;;45.07;15.00;;;9.70;12.80;;;;;;4991521;28;20664;-69
2022/03/29 01:44:48;;;;;;;45.23;14.60;;;9.70;12.60;;;;;;4991143;28;20473;-69
2022/03/29 01:47:20;;;;;;;49.57;15.43;;;9.60;12.40;;;;;;4998828;28;20456;-69
2022/03/29 01:49:47;;;;;;;44.93;15.30;;;9.60;12.80;;;;;;4994779;28;20461;-68
2022/03/29 01:52:14;;;;;;;51.00;15.50;;;9.60;12.70;;;;;;4991926;28;20468;-69
2022/03/29 01:54:42;;;;;;;44.77;14.63;;;9.50;12.80;;;;;;4989974;28;20488;-69
2022/03/29 01:57:10;;;;;;;49.67;16.30;;;9.50;12.80;;;;;;4991141;28;20461;-68
2022/03/29 02:02:18;;;;;;;46.90;15.90;;;9.50;13.00;;;;;;4988688;28;20457;-68
2022/03/29 02:04:45;;;;;;;47.73;15.63;;;9.40;13.10;;;;;;4989639;28;20624;-69
2022/03/29 02:07:12;;;;;;;45.47;14.60;;;9.40;13.10;;;;;;4989906;28;20460;-69
2022/03/29 02:09:39;;;;;;;45.50;15.87;;;9.50;13.20;;;;;;4990531;28;20460;-68
2022/03/29 02:12:08;;;;;;;44.93;15.37;;;9.50;13.30;;;;;;4991031;28;20461;-69
2022/03/29 02:14:37;;;;;;;45.90;15.80;;;9.50;13.80;;;;;;4990008;28;20495;-69
2022/03/29 02:17:04;;;;;;;46.60;16.23;;;9.50;13.40;;;;;;4989173;28;20496;-69
2022/03/29 02:19:31;;;;;;;52.53;15.80;;;9.40;13.20;;;;;;4989955;28;20465;-69
2022/03/29 02:21:58;;;;;;;47.30;16.00;;;9.40;13.30;;;;;;4989519;28;20535;-69
2022/03/29 02:24:25;;;;;;;45.07;15.33;;;9.40;13.50;;;;;;4990292;28;20522;-69
2022/03/29 02:26:52;;;;;;;46.97;16.20;;;9.30;13.60;;;;;;4989237;28;21084;-68
2022/03/29 02:29:19;;;;;;;47.80;14.97;;;9.30;13.70;;;;;;4990395;28;20956;-68
2022/03/29 02:31:47;;;;;;;48.60;16.73;;;9.30;13.80;;;;;;4990124;28;20475;-68
2022/03/29 02:34:13;;;;;;;48.43;15.90;;;9.30;13.90;;;;;;4990197;28;21103;-69
2022/03/29 02:36:40;;;;;;;46.10;14.87;;;9.30;14.10;;;;;;4989188;28;20547;-69
2022/03/29 02:39:07;;;;;;;48.27;16.17;;;9.30;14.10;;;;;;4990268;28;20471;-69
2022/03/29 02:41:34;;;;;;;48.00;17.70;;;9.20;14.30;;;;;;4990591;28;20540;-68
2022/03/29 02:44:00;;;;;;;48.90;15.17;;;9.20;14.10;;;;;;4989585;28;20876;-69
2022/03/29 02:46:27;;;;;;;47.53;16.70;;;9.20;14.10;;;;;;4989181;28;20499;-69
2022/03/29 02:48:55;;;;;;;46.53;15.70;;;9.20;14.30;;;;;;4990062;28;20468;-68
2022/03/29 02:51:22;;;;;;;46.93;15.73;;;9.20;14.30;;;;;;4989938;28;20460;-68
2022/03/29 02:53:49;;;;;;;47.10;16.13;;;9.20;15.40;;;;;;4990026;28;20471;-69
2022/03/29 02:56:16;;;;;;;48.37;16.50;;;9.20;14.90;;;;;;4989488;28;20491;-69
2022/03/29 02:58:42;;;;;;;47.63;15.90;;;9.20;15.00;;;;;;4989311;28;20461;-69
2022/03/29 03:01:09;;;;;;;49.10;16.97;;;9.20;15.10;;;;;;4988972;28;20472;-69
2022/03/29 03:03:36;;;;;;;48.33;15.43;;;9.10;15.00;;;;;;4989712;28;20952;-69
2022/03/29 03:06:04;;;;;;;46.90;16.70;;;9.20;15.10;;;;;;4989425;28;20477;-69
2022/03/29 03:08:31;;;;;;;48.20;16.37;;;9.10;15.30;;;;;;4987009;28;20464;-69
2022/03/29 03:10:58;;;;;;;49.80;17.00;;;9.10;15.30;;;;;;4990191;28;20483;-69
2022/03/29 03:13:25;;;;;;;47.67;16.43;;;9.10;15.60;;;;;;4989974;28;20465;-69
2022/03/29 03:15:52;;;;;;;51.20;15.77;;;9.00;15.70;;;;;;4989545;28;20547;-69
2022/03/29 03:18:19;;;;;;;49.60;17.17;;;8.90;15.50;;;;;;4988115;28;20468;-68
2022/03/29 03:20:46;;;;;;;50.37;17.00;;;8.90;15.60;;;;;;4988346;28;20464;-69
2022/03/29 03:23:14;;;;;;;52.20;17.70;;;8.80;15.70;;;;;;4988919;28;20464;-69
2022/03/29 03:25:40;;;;;;;45.60;16.00;;;8.70;15.60;;;;;;4989677;28;20484;-68
2022/03/29 03:28:07;;;;;;;46.13;16.80;;;8.80;15.60;;;;;;4988631;28;20465;-68
2022/03/29 03:30:34;;;;;;;47.00;16.00;;;8.80;15.70;;;;;;4987385;28;20467;-69
2022/03/29 03:33:01;;;;;;;50.47;17.50;;;8.70;15.70;;;;;;4989104;28;20492;-68
2022/03/29 03:35:28;;;;;;;46.47;16.83;;;8.70;16.00;;;;;;4989620;28;20495;-69
2022/03/29 03:37:54;;;;;;;51.10;18.13;;;8.70;16.70;;;;;;4989763;28;20461;-68
2022/03/29 03:40:22;;;;;;;46.30;16.67;;;8.80;16.20;;;;;;4988765;28;21100;-69
2022/03/29 03:42:49;;;;;;;46.00;15.87;;;8.80;15.90;;;;;;4968609;28;20472;-69
2022/03/29 03:45:16;;;;;;;45.70;15.73;;;8.90;15.80;;;;;;4969506;28;20888;-60
2022/03/29 03:47:43;;;;;;;47.47;16.47;;;8.90;15.80;;;;;;4969867;28;20458;-60
2022/03/29 03:50:10;;;;;;;50.63;15.90;;;9.00;15.70;;;;;;4968520;28;20485;-60
2022/03/29 03:52:37;;;;;;;48.63;16.70;;;9.00;15.50;;;;;;4983570;28;20872;-59
2022/03/29 03:55:05;;;;;;;50.23;17.67;;;9.00;15.50;;;;;;4987732;28;21004;-68
2022/03/29 03:57:33;;;;;;;47.60;17.80;;;9.10;15.40;;;;;;4989321;28;20592;-68
2022/03/29 04:00:01;;;;;;;50.50;19.17;;;9.10;15.70;;;;;;4988741;28;20472;-69
2022/03/29 04:02:28;;;;;;;52.30;18.23;;;9.10;16.10;;;;;;4995292;28;20473;-69
2022/03/29 04:04:55;;;;;;;49.73;17.63;;;9.00;16.10;;;;;;4992139;28;20480;-68
2022/03/29 04:07:22;;;;;;;46.90;17.27;;;8.90;16.20;;;;;;4988171;28;20464;-68
2022/03/29 04:09:48;;;;;;;47.07;17.00;;;8.90;16.40;;;;;;4988704;28;20461;-69
2022/03/29 04:12:15;;;;;;;47.33;17.80;;;8.80;16.40;;;;;;4986742;28;20465;-68
2022/03/29 04:14:43;;;;;;;47.87;17.80;;;8.80;16.30;;;;;;4988355;28;20460;-68
2022/03/29 04:17:11;;;;;;;47.87;17.40;;;8.70;16.40;;;;;;4988326;28;21083;-68
2022/03/29 04:19:38;;;;;;;46.23;17.90;;;8.70;16.50;;;;;;4988898;28;20529;-68
2022/03/29 04:22:08;;;;;;;47.60;18.33;;;8.70;16.60;;;;;;4987740;28;21054;-68
2022/03/29 04:24:35;;;;;;;52.40;19.60;;;8.70;16.60;;;;;;4988735;28;20467;-68
2022/03/29 04:27:01;;;;;;;50.37;17.20;;;8.60;17.10;;;;;;4988508;28;20578;-68
2022/03/29 04:29:29;;;;;;;49.13;18.03;;;8.60;16.60;;;;;;4987898;28;20963;-68
2022/03/29 04:31:57;;;;;;;48.37;18.57;;;8.60;16.70;;;;;;4988041;28;20469;-68
2022/03/29 04:34:25;;;;;;;48.17;19.03;;;8.60;16.70;;;;;;4986263;28;20456;-68
2022/03/29 04:36:51;;;;;;;48.30;17.00;;;8.50;16.80;;;;;;4989182;28;20684;-68
2022/03/29 04:39:18;;;;;;;46.07;17.90;;;8.50;16.70;;;;;;4985127;28;20964;-69
2022/03/29 04:41:45;;;;;;;49.50;17.20;;;8.50;16.80;;;;;;4969535;28;20488;-68
2022/03/29 04:44:12;;;;;;;48.03;18.40;;;8.40;16.90;;;;;;4977842;28;20465;-68
2022/03/29 04:46:39;;;;;;;47.57;18.77;;;8.40;17.30;;;;;;4992349;28;20571;-68
2022/03/29 04:49:07;;;;;;;47.20;18.30;;;8.30;17.40;;;;;;4992135;28;20966;-68
2022/03/29 04:51:35;;;;;;;49.80;18.20;;;8.20;17.30;;;;;;4992258;28;20836;-68
2022/03/29 04:54:02;;;;;;;48.43;18.30;;;8.20;17.50;;;;;;4991068;28;20476;-68
2022/03/29 04:56:29;;;;;;;50.47;18.27;;;8.20;17.70;;;;;;4997054;28;20844;-68
2022/03/29 04:58:56;;;;;;;50.57;18.97;;;8.10;17.70;;;;;;5006983;28;20466;-68
2022/03/29 05:01:23;;;;;;;46.60;17.70;;;8.10;17.90;;;;;;4989041;28;20551;-68
2022/03/29 05:03:49;;;;;;;45.80;17.93;;;8.10;18.00;;;;;;4994948;28;20457;-69
2022/03/29 05:06:17;;;;;;;49.20;18.63;;;8.00;18.10;;;;;;4991116;28;20481;-68
2022/03/29 05:08:44;;;;;;;49.50;17.80;;;8.00;18.20;;;;;;4993139;28;20460;-68
2022/03/29 05:11:11;;;;;;;47.70;19.07;;;8.00;18.00;;;;;;4992487;28;20457;-67
2022/03/29 05:13:38;;;;;;;48.00;17.30;;;8.00;18.20;;;;;;4991844;28;20707;-69
2022/03/29 05:16:05;;;;;;;44.97;17.90;;;7.90;18.30;;;;;;4990791;28;20491;-68
2022/03/29 05:18:32;;;;;;;46.77;18.67;;;7.90;18.60;;;;;;4992290;28;20468;-68
2022/03/29 05:20:59;;;;;;;46.03;18.67;;;7.90;18.60;;;;;;4992419;28;20461;-68
2022/03/29 05:23:27;;;;;;;55.43;20.47;;;7.90;18.60;;;;;;4992297;28;20460;-68
2022/03/29 05:25:53;;;;;;;47.00;18.07;;;8.00;18.70;;;;;;4990704;28;20480;-68
2022/03/29 05:28:20;;;;;;;49.77;19.10;;;8.00;18.60;;;;;;4992360;28;20467;-68
2022/03/29 05:30:47;;;;;;;49.87;18.90;;;8.10;18.70;;;;;;4991182;28;20472;-68
2022/03/29 05:33:15;;;;;;;53.60;18.93;;;8.20;18.70;;;;;;4991769;28;20464;-68
2022/03/29 05:35:43;;;;;;;48.80;17.33;;;8.30;18.70;;;;;;4990439;28;21070;-68
2022/03/29 05:38:09;;;;;;;50.03;17.40;;;8.40;18.50;;;;;;4991620;28;20907;-68
2022/03/29 05:40:38;;;;;;;49.77;18.33;;;8.50;18.20;;;;;;4991677;28;20464;-68
2022/03/29 05:43:09;;;;;;;48.60;17.20;;;8.60;18.50;;;;;;4992077;28;20463;-68
2022/03/29 05:45:36;;;;;;;51.37;17.60;;;8.70;17.70;;;;;;4991542;28;21020;-68
2022/03/29 05:50:47;;;;;;;48.37;16.40;;;9.10;18.00;;;;;;4991386;28;20820;-68
2022/03/29 05:53:14;;;;;;;57.90;19.00;;;9.30;17.10;;;;;;4991358;28;20460;-68
2022/03/29 05:55:42;;;;;;;50.13;17.40;;;9.50;16.80;;;;;;4991031;28;21020;-68
2022/03/29 05:58:09;;;;;;;47.30;16.47;;;9.60;16.50;;;;;;4989653;28;20473;-68
2022/03/29 06:00:36;;;;;;;52.17;17.90;;;9.80;16.30;;;;;;4990847;28;20471;-68
2022/03/29 06:03:03;;;;;;;48.40;16.57;;;10.00;16.10;;;;;;4991210;28;20461;-68
2022/03/29 06:05:30;;;;;;;51.57;18.90;;;10.10;15.90;;;;;;4991159;28;20487;-68
2022/03/29 06:07:59;;;;;;;53.10;17.63;;;10.30;15.60;;;;;;4990087;28;20469;-69
2022/03/29 06:10:26;;;;;;;48.30;16.93;;;10.60;15.20;;;;;;4991707;28;21051;-68
2022/03/29 06:12:54;;;;;;;50.53;17.43;;;10.80;14.70;;;;;;4990929;28;20952;-68
2022/03/29 06:15:20;;;;;;;49.93;17.13;;;11.10;14.30;;;;;;4991934;28;20480;-69
2022/03/29 06:17:47;;;;;;;46.20;16.23;;;11.30;14.00;;;;;;4991877;28;20488;-69
2022/03/29 06:20:14;;;;;;;48.03;16.50;;;11.60;13.60;;;;;;4996013;28;20465;-69
2022/03/29 06:22:44;;;;;;;46.80;16.77;;;11.90;13.30;;;;;;4991444;28;20465;-68
2022/03/29 06:25:12;;;;;;;49.93;17.93;;;12.20;12.90;;;;;;4991291;28;20535;-69
2022/03/29 06:27:39;;;;;;;47.50;16.53;;;12.50;12.70;;;;;;4989556;28;20666;-68
2022/03/29 06:30:08;;;;;;;50.70;19.03;;;12.80;12.20;;;;;;4991022;28;20475;-69
2022/03/29 06:32:44;;;;;;;50.07;17.10;;;13.10;11.80;;;;;;4989989;28;20483;-68
2022/03/29 06:35:11;;;;;;;49.03;17.27;;;13.40;11.20;;;;;;4991004;28;20481;-69
2022/03/29 06:37:38;;;;;;;51.80;19.47;;;13.60;10.90;;;;;;4990928;28;20488;-69
2022/03/29 06:40:06;;;;;;;53.23;17.97;;;13.70;10.70;;;;;;4989376;28;20467;-69
2022/03/29 06:42:32;;;;;;;52.63;18.43;;;13.80;10.30;;;;;;4990093;28;20457;-69
2022/03/29 06:44:59;;;;;;;50.10;17.10;;;13.80;10.20;;;;;;4990419;28;21007;-69
2022/03/29 06:47:27;;;;;;;48.10;17.67;;;13.80;10.30;;;;;;4990666;28;20456;-69
2022/03/29 06:49:54;;;;;;;48.90;17.70;;;13.90;10.20;;;;;;4987031;28;20464;-69
2022/03/29 06:52:26;;;;;;;47.37;18.73;;;14.10;10.10;;;;;;4990263;28;20556;-69
2022/03/29 06:54:52;;;;;;;48.90;18.00;;;14.10;9.70;;;;;;4989521;28;20914;-69
2022/03/29 06:57:19;;;;;;;51.10;17.57;;;14.20;9.30;;;;;;4989991;28;20492;-69
2022/03/29 06:59:46;;;;;;;49.90;17.40;;;14.30;9.40;;;;;;4988726;28;20471;-69
2022/03/29 07:02:13;;;;;;;49.30;17.23;;;14.40;9.30;;;;;;4988535;28;20479;-69
2022/03/29 07:04:42;;;;;;;48.67;17.47;;;14.50;9.00;;;;;;4990167;28;20457;-69
2022/03/29 07:07:09;;;;;;;51.60;19.30;;;14.60;8.80;;;;;;4990191;28;20461;-69
2022/03/29 07:12:20;;;;;;;51.00;18.53;;;14.70;8.60;;;;;;4989943;28;20946;-69
2022/03/29 07:14:47;;;;;;;52.07;18.60;;;14.80;8.70;;;;;;4989956;28;20547;-68
2022/03/29 07:17:16;;;;;;;50.17;17.50;;;14.90;8.80;;;;;;4990319;28;20481;-69
2022/03/29 07:19:44;;;;;;;47.07;17.97;;;15.00;8.80;;;;;;4988842;28;20469;-69
2022/03/29 07:22:11;;;;;;;53.17;18.33;;;15.10;8.70;;;;;;4989287;28;20464;-69
2022/03/29 07:24:38;;;;;;;51.23;18.00;;;15.40;8.40;;;;;;4989427;28;21182;-69
2022/03/29 07:27:05;;;;;;;50.07;17.43;;;15.50;8.20;;;;;;4990127;28;20460;-69
2022/03/29 07:29:33;;;;;;;48.73;17.53;;;15.70;7.80;;;;;;4989742;28;20461;-69
2022/03/29 07:32:00;;;;;;;52.80;18.40;;;16.00;7.30;;;;;;4987989;28;20873;-70
2022/03/29 07:34:28;;;;;;;48.53;17.90;;;16.10;7.00;;;;;;4989513;28;20471;-69
2022/03/29 07:36:56;;;;;;;50.63;18.00;;;16.30;7.10;;;;;;4989929;28;20485;-69
2022/03/29 07:39:23;;;;;;;47.40;17.63;;;16.60;6.60;;;;;;4989271;28;20460;-69
2022/03/29 07:41:50;;;;;;;48.23;17.10;;;17.00;6.10;;;;;;4988936;28;20468;-69
2022/03/29 07:44:17;;;;;;;51.00;17.63;;;17.50;5.40;;;;;;4988818;28;20960;-69
2022/03/29 07:46:44;;;;;;;49.80;18.00;;;18.00;4.60;;;;;;4989852;28;20700;-69
2022/03/29 07:49:11;;;;;;;43.60;16.37;;;18.40;3.60;;;;;;4989663;28;20487;-69
2022/03/29 07:51:38;;;;;;;55.53;18.50;;;18.70;3.20;;;;;;4988438;28;20477;-69
2022/03/29 07:54:07;;;;;;;45.70;18.20;;;18.80;3.20;;;;;;4989530;28;20968;-70
2022/03/29 07:56:34;;;;;;;49.80;17.47;;;19.20;2.90;;;;;;4989771;28;20480;-69
2022/03/29 07:59:01;;;;;;;52.13;17.73;;;19.60;2.20;;;;;;4989423;28;20519;-69
2022/03/29 08:01:29;;;;;;;50.07;17.13;;;19.90;1.90;;;;;;4987166;28;20488;-69
2022/03/29 08:03:56;;;;;;;48.33;16.43;;;20.10;1.40;;;;;;4989448;28;20968;-70
2022/03/29 08:06:23;;;;;;;44.60;16.73;;;20.10;1.20;;;;;;4989162;28;20477;-69
2022/03/29 08:08:50;;;;;;;46.00;17.13;;;20.40;1.00;;;;;;4988782;28;20465;-69
2022/03/29 08:11:19;;;;;;;49.30;17.00;;;21.10;1.00;;;;;;4988802;28;20466;-69
2022/03/29 08:13:46;;;;;;;47.87;16.97;;;21.60;1.00;;;;;;4987949;28;20469;-69
2022/03/29 08:16:13;;;;;;;51.43;17.67;;;22.10;1.00;;;;;;4988994;28;20480;-70
2022/03/29 08:18:40;;;;;;;45.10;17.17;;;22.70;1.00;;;;;;4988742;28;20471;-69
2022/03/29 08:21:48;;;;;;;48.20;16.57;;;23.00;1.00;;;;;;4994442;28;21156;-69
2022/03/29 08:23:54;;;;;;;49.90;15.60;;;23.30;1.00;;;;;;4994276;28;20456;-69
2022/03/29 08:26:22;;;;;;;43.73;17.47;;;24.00;1.00;;;;;;4995637;28;20492;-69
2022/03/29 08:28:50;;;;;;;43.83;17.67;;;24.80;1.00;;;;;;4995355;28;20853;-69
2022/03/29 08:31:17;;;;;;;49.80;17.60;;;25.20;1.00;;;;;;4995192;28;20491;-70
2022/03/29 08:33:44;;;;;;;43.20;17.00;;;24.90;1.00;;;;;;4996979;28;20546;-70
2022/03/29 08:36:11;;;;;;;54.20;18.27;;;24.20;1.00;;;;;;5001149;28;20485;-70
2022/03/29 08:38:38;;;;;;;41.87;17.00;;;23.50;1.00;;;;;;4996494;28;20460;-69
2022/03/29 08:41:06;;;;;;;45.33;17.50;;;23.10;1.00;;;;;;4995919;28;20547;-70
2022/03/29 08:43:34;;;;;;;45.10;17.27;;;22.70;1.00;;;;;;4994144;28;20460;-69
2022/03/29 08:46:01;;;;;;;45.33;17.03;;;22.50;1.00;;;;;;4995103;28;20480;-70
2022/03/29 08:48:30;;;;;;;48.93;17.20;;;22.20;1.00;;;;;;4995625;28;20453;-70
2022/03/29 08:50:59;;;;;;;46.47;16.97;;;22.00;1.00;;;;;;4995423;28;20470;-70
2022/03/29 08:53:28;;;;;;;42.77;16.07;;;21.80;1.00;;;;;;4994227;28;20551;-70
2022/03/29 08:55:55;;;;;;;43.93;17.10;;;21.40;1.00;;;;;;4994908;28;21050;-70
2022/03/29 08:58:23;;;;;;;45.40;16.37;;;21.20;1.00;;;;;;4995214;28;20919;-69
2022/03/29 09:00:53;;;;;;;49.60;17.70;;;20.90;1.00;;;;;;4994435;28;20464;-69
2022/03/29 09:03:20;;;;;;;43.10;16.07;;;20.70;1.00;;;;;;4994944;28;20464;-69
2022/03/29 09:05:48;;;;;;;45.30;16.30;;;20.50;1.00;;;;;;4993802;28;20547;-69
2022/03/29 09:08:16;;;;;;;48.87;17.80;;;20.30;1.00;;;;;;4994998;28;20467;-69
2022/03/29 09:10:45;;;;;;;44.50;16.13;;;20.00;1.40;;;;;;4994375;28;20879;-70
2022/03/29 09:13:20;;;;;;;45.40;16.43;;;19.90;2.20;;;;;;4995104;28;20464;-69
2022/03/29 09:15:48;;;;;;;51.00;18.00;;;19.80;1.90;;;;;;4994369;28;20484;-69
2022/03/29 09:18:16;;;;;;;46.90;15.60;;;19.80;2.30;;;;;;4994981;28;21007;-69
2022/03/29 09:20:45;;;;;;;46.60;17.60;;;19.90;2.20;;;;;;4995392;28;21010;-69
2022/03/29 09:23:14;;;;;;;45.50;16.53;;;20.00;2.10;;;;;;4994854;28;20564;-70
2022/03/29 09:25:47;;;;;;;44.87;16.73;;;20.30;2.10;;;;;;4992582;28;20543;-70
2022/03/29 09:28:14;;;;;;;45.80;15.30;;;20.80;1.70;;;;;;4994654;28;20960;-69
2022/03/29 09:30:43;;;;;;;48.53;18.00;;;21.00;1.30;;;;;;4994116;28;20472;-69
2022/03/29 09:33:12;;;;;;;48.57;16.70;;;21.10;1.00;;;;;;4990531;28;20938;-70
2022/03/29 09:35:55;;;;;;;46.47;16.13;;;21.00;1.00;;;;;;4990502;28;20491;-69
2022/03/29 09:38:26;;;;;;;48.43;16.80;;;21.30;1.00;;;;;;4991314;28;20579;-69
2022/03/29 09:40:52;;;;;;;43.33;16.40;;;21.60;1.00;;;;;;4991530;28;20492;-69
2022/03/29 09:43:22;;;;;;;48.07;16.07;;;21.90;1.00;;;;;;4991406;28;20463;-69
2022/03/29 09:45:50;;;;;;;46.57;17.73;;;21.90;1.00;;;;;;4990808;28;20492;-69
2022/03/29 09:48:35;;;;;;;45.40;17.27;;;21.70;1.00;;;;;;4990966;28;20460;-69
2022/03/29 09:51:22;;;;;;;44.70;16.47;;;21.40;1.00;;;;;;4991162;28;20948;-69
2022/03/29 09:53:51;;;;;;;45.73;17.83;;;21.20;1.00;;;;;;4991116;28;20461;-69
2022/03/29 09:56:24;;;;;;;48.43;16.97;;;21.20;1.00;;;;;;4990789;28;20480;-69
2022/03/29 09:59:03;;;;;;;45.17;16.10;;;21.10;1.00;;;;;;4971281;28;20481;-69
2022/03/29 10:01:30;;;;;;;44.77;17.00;;;21.10;1.00;;;;;;4971094;28;20977;-69
2022/03/29 10:03:59;;;;;;;49.83;16.47;;;20.90;1.00;;;;;;4971477;28;20457;-69
2022/03/29 10:06:28;;;;;;;47.73;16.30;;;20.80;1.00;;;;;;4974549;28;20479;-69
2022/03/29 10:11:44;;;;;;;45.07;15.20;;;20.80;1.00;;;;;;4988906;28;20439;-70
2022/03/29 10:14:13;;;;;;;46.77;15.33;;;21.00;1.00;;;;;;4989454;28;20503;-70
2022/03/29 10:16:40;;;;;;;49.40;17.13;;;21.10;1.10;;;;;;4989462;28;20488;-69
2022/03/29 10:19:08;;;;;;;43.67;15.63;;;21.30;1.00;;;;;;4988234;28;20464;-69
2022/03/29 10:21:37;;;;;;;45.70;17.93;;;21.50;1.00;;;;;;4989453;28;20556;-70
2022/03/29 10:24:07;;;;;;;45.47;17.47;;;21.60;1.00;;;;;;4989312;28;20464;-70
2022/03/29 10:26:35;;;;;;;54.90;16.53;;;21.80;1.00;;;;;;4989448;28;21017;-69
2022/03/29 10:29:02;;;;;;;46.37;16.70;;;22.00;1.00;;;;;;4988177;28;20974;-70
2022/03/29 10:31:31;;;;;;;47.97;15.80;;;22.20;1.00;;;;;;4988661;28;20504;-70
2022/03/29 10:34:14;;;;;;;47.73;17.70;;;22.30;1.00;;;;;;4988681;28;20559;-70
2022/03/29 10:37:08;;;;;;;42.60;14.77;;;22.40;1.00;;;;;;4989521;28;20484;-70
2022/03/29 10:39:44;;;;;;;42.77;15.03;;;22.30;1.00;;;;;;4987861;28;20535;-70
2022/03/29 10:42:27;;;;;;;45.50;16.23;;;22.30;1.00;;;;;;4989705;28;20523;-71
2022/03/29 10:45:21;;;;;;;40.03;14.90;;;22.40;1.00;;;;;;4987600;28;20483;-70
2022/03/29 10:48:02;;;;;;;41.00;13.70;;;22.30;1.00;;;;;;4990501;28;20453;-70
2022/03/29 10:50:55;;;;;;;43.20;13.97;;;22.30;1.00;;;;;;4994156;28;20488;-68
2022/03/29 10:53:28;;;;;;;45.17;16.77;;;22.30;1.00;;;;;;4987803;28;20511;-68
2022/03/29 10:56:25;;;;;;;43.93;16.00;;;22.30;1.00;;;;;;4988892;28;20495;-69
2022/03/29 10:59:14;;;;;;;40.33;15.60;;;22.30;1.00;;;;;;4988274;28;20524;-69
2022/03/29 11:01:42;;;;;;;40.30;15.17;;;22.30;1.00;;;;;;4988359;28;20480;-68
2022/03/29 11:04:17;;;;;;;45.57;16.37;;;22.40;1.00;;;;;;4987616;28;20960;-68
2022/03/29 11:07:14;;;;;;;42.97;15.37;;;22.40;1.00;;;;;;4986661;28;20508;-68
2022/03/29 11:09:46;;;;;;;44.80;15.40;;;22.50;1.00;;;;;;4980855;28;20475;-69
2022/03/29 11:12:39;;;;;;;46.77;16.03;;;22.70;1.00;;;;;;4987439;28;20465;-69
2022/03/29 11:15:45;;;;;;;40.13;14.90;;;22.90;1.00;;;;;;4987713;28;20477;-69
2022/03/29 11:18:40;;;;;;;49.07;15.90;;;23.30;1.00;;;;;;4986053;28;20495;-70
2022/03/29 11:21:08;;;;;;;40.40;14.47;;;23.50;1.00;;;;;;4940159;28;20463;-70
2022/03/29 11:23:36;;;;;;;44.00;14.93;;;23.50;1.00;;;;;;4986246;28;20461;-71
2022/03/29 11:26:10;;;;;;;44.00;15.60;;;23.60;1.00;;;;;;4986298;28;20504;-69
2022/03/29 11:28:37;;;;;;;42.87;14.77;;;23.70;1.00;;;;;;4987063;28;20449;-70
2022/03/29 11:31:05;;;;;;;41.00;16.17;;;23.80;1.00;;;;;;4987083;28;20484;-70
2022/03/29 11:33:33;;;;;;;42.60;14.43;;;24.00;1.00;;;;;;4987092;28;20467;-70
2022/03/29 11:36:01;;;;;;;37.37;13.70;;;24.00;1.00;;;;;;4985736;28;20483;-70
2022/03/29 11:38:33;;;;;;;38.33;13.37;;;24.00;1.00;;;;;;4988251;28;20489;-70
2022/03/29 11:41:00;;;;;;;37.90;12.40;;;23.90;1.00;;;;;;4987480;28;20461;-69
2022/03/29 11:43:28;;;;;;;39.40;12.77;;;23.80;1.00;;;;;;4986907;28;21001;-75
2022/03/29 11:45:56;;;;;;;40.90;14.17;;;23.70;1.00;;;;;;4986388;28;20488;-70
2022/03/29 11:48:25;;;;;;;331.77;41.57;;;23.60;1.00;;;;;;4986015;28;20466;-69
2022/03/29 11:50:54;;;;;;;37.90;14.03;;;23.50;1.00;;;;;;4987174;28;20592;-68
2022/03/29 11:53:23;;;;;;;47.73;14.57;;;23.30;1.00;;;;;;4986818;28;20573;-68
2022/03/29 11:56:01;;;;;;;38.07;12.73;;;23.20;1.00;;;;;;4985200;28;20481;-68
2022/03/29 11:58:31;;;;;;;37.80;12.87;;;23.10;1.00;;;;;;4986667;28;20488;-68
2022/03/29 12:01:00;;;;;;;40.00;13.40;;;23.00;1.00;;;;;;4986899;28;20776;-69
2022/03/29 12:03:34;;;;;;;37.87;12.57;;;22.80;1.00;;;;;;4988098;28;20486;-69
2022/03/29 12:06:13;;;;;;;39.77;13.67;;;22.70;1.00;;;;;;4987730;28;20516;-68
2022/03/29 12:08:44;;;;;;;39.97;12.33;;;22.60;1.00;;;;;;4986200;28;21034;-69
2022/03/29 12:11:11;;;;;;;38.37;12.13;;;22.50;1.00;;;;;;4986943;28;20475;-68
2022/03/29 12:13:39;;;;;;;40.60;12.90;;;22.30;1.00;;;;;;4987367;28;20824;-68
2022/03/29 12:16:17;;;;;;;41.90;12.70;;;22.20;1.00;;;;;;4987825;28;20488;-69
2022/03/29 12:18:45;;;;;;;38.60;11.53;;;22.10;1.00;;;;;;4986274;28;20484;-69
2022/03/29 12:21:13;;;;;;;41.50;13.60;;;22.10;1.00;;;;;;4987322;28;20515;-67
2022/03/29 12:23:42;;;;;;;37.87;11.90;;;22.00;1.00;;;;;;4987459;28;20836;-67
2022/03/29 12:26:10;;;;;;;39.10;12.10;;;22.00;1.00;;;;;;4987509;28;20480;-67
2022/03/29 12:28:38;;;;;;;38.00;12.17;;;22.00;1.00;;;;;;4986142;28;20465;-67
2022/03/29 12:31:10;;;;;;;39.03;11.53;;;21.90;1.00;;;;;;4986248;28;20531;-67
2022/03/29 12:33:38;;;;;;;42.03;12.40;;;21.90;1.00;;;;;;4987844;28;20461;-67
2022/03/29 12:36:07;;;;;;;37.83;11.17;;;22.00;1.00;;;;;;4987492;28;20488;-67
2022/03/29 12:38:47;;;;;;;38.63;12.40;;;22.10;1.00;;;;;;4986954;28;20499;-69
2022/03/29 12:41:15;;;;;;;41.03;12.77;;;22.20;1.00;;;;;;4986917;28;20483;-66
2022/03/29 12:43:53;;;;;;;38.83;11.90;;;22.20;1.00;;;;;;4987575;28;20469;-69
2022/03/29 12:46:22;;;;;;;41.67;10.53;;;22.30;1.00;;;;;;4987650;28;21015;-67
2022/03/29 12:48:49;;;;;;;41.97;12.00;;;22.40;1.00;;;;;;4987178;28;20504;-66
2022/03/29 12:51:16;;;;;;;38.17;10.00;;;22.50;1.00;;;;;;4986095;28;20500;-66
2022/03/29 12:53:55;;;;;;;38.17;10.70;;;22.50;1.00;;;;;;4987362;28;20457;-66
2022/03/29 12:56:29;;;;;;;40.33;10.83;;;22.50;1.00;;;;;;4987530;28;20480;-67